CYRQ

Trois-Rivieres Airport

Trois-Rivieres, , Canada
METAR CYRQ 201400Z AUTO 20005KT 170V230 9SM CLR 24/16 A3014 RMK SLP208 DENSITY ALT 900FT
Observed Flight Rules
Jul-20 @ 14:00 UTC (31 minutes ago) Visual Flight Rules
Wind Visibility Clouds
200° at 5 knots 9 miles
  • Clear skies
Temperatures Readings
Current 24°C / 75°F
Dewpoint 16°C / 61°F
Humidity 61%
Altimeter 30.14" Hg
Pressure 1020.8 hPa
Elevation 61
METAR CYRQ 201400Z AUTO 20005KT 170V230 9SM CLR 24/16 A3014 RMK SLP208 DENSITY ALT 900FT
Observed Flight Rules
Jul-20 @ 14:00 UTC
(31 minutes ago)
VFR
Wind Visibility
200° at 5 knots 9 miles
Clouds
  • Clear skies
Temperature Dewpoint
24°C / 75°F 16°C / 61°F
Humidity Altimeter Pressure
61% 30.14" Hg 1020.8 hPa